KPMD/PMD METAR and TAF weather

Enter ICAO airport designator
Station Type Date Time Source
KPMD METAR 2022/06/27 17:53 UTC NOAA

KPMD 271753Z VRB03KT 10SM CLR 36/M01 A3011 RMK AO2 SLP162 T03561006 10356 20200 58002


Station Type Date Time Source
KPMD Decoded METAR 2022/06/27 17:53 UTC NOAA

PALMDALE PROD FLIGHT PLANT, CA, United States (KPMD) 34-38N 118-05W 780M
Jun 27, 2022 - 01:53 PM EDT / 2022.06.27 1753 UTC
Wind: Variable at 3 MPH (3 KT):0
Visibility: 10 mile(s):0
Sky conditions: clear
Temperature: 96.1 F (35.6 C)
Dew Point: 30.9 F (-0.6 C)
Relative Humidity: 10%
Pressure (altimeter): 30.11 in. Hg (1019 hPa)
Pressure tendency: 0.01 inches (0.2 hPa) lower than three hours ago
ob: KPMD 271753Z VRB03KT 10SM CLR 36/M01 A3011 RMK AO2 SLP162 T03561006 10356 20200 58002
cycle: 18

Station Type Date Time Source
KPMD TAF 2022/06/27 18:24 UTC NOAA

TAF KPMD 271722Z 2718/2818 05006KT P6SM SKC
FM272100 25015KT P6SM SKC
FM280600 18008KT P6SM SKC

Example: see airport list